Time;durP1;ratioP1;P1;durP2;ratioP2;P2;SDS_P1;SDS_P2;PMS_P1;PMS_P2;Temp;Humidity;BMP_temperature;BMP_pressure;BME280_temperature;BME280_humidity;BME280_pressure;Samples;Min_cycle;Max_cycle;Signal;HPM_P1;HPM_P2
2022/11/19 00:01:24;;;;;;;1.57;1.57;;;18.00;74.90;;;;;;5072579;28;43343;-75
2022/11/19 00:03:52;;;;;;;1.60;1.50;;;18.10;74.50;;;;;;5072824;28;43463;-75
2022/11/19 00:06:21;;;;;;;1.67;1.67;;;18.20;74.10;;;;;;5072952;28;43487;-74
2022/11/19 00:08:49;;;;;;;1.53;1.53;;;18.40;73.60;;;;;;5072461;28;43830;-75
2022/11/19 00:12:53;;;;;;;1.50;1.50;;;18.40;73.20;;;;;;5072349;28;43350;-74
2022/11/19 00:14:07;;;;;;;1.53;1.53;;;18.40;73.10;;;;;;5071781;28;43480;-75
2022/11/19 00:16:35;;;;;;;1.40;1.40;;;18.30;73.20;;;;;;5054826;28;43551;-75
2022/11/19 00:19:03;;;;;;;1.40;1.40;;;18.30;73.50;;;;;;5071347;28;43633;-75
2022/11/19 00:21:31;;;;;;;1.47;1.47;;;18.20;73.60;;;;;;5071794;28;43439;-74
2022/11/19 00:23:59;;;;;;;1.60;1.50;;;18.10;73.90;;;;;;5072007;28;43677;-74
2022/11/19 00:26:28;;;;;;;1.70;1.70;;;18.10;74.30;;;;;;5054765;28;43567;-74
2022/11/19 00:28:56;;;;;;;1.50;1.50;;;18.10;74.20;;;;;;5072485;28;43933;-74
2022/11/19 00:31:24;;;;;;;1.70;1.70;;;18.10;74.20;;;;;;5071882;28;43429;-75
2022/11/19 00:33:53;;;;;;;1.77;1.70;;;18.00;74.20;;;;;;5072027;28;43433;-74
2022/11/19 00:36:22;;;;;;;1.57;1.57;;;18.00;74.30;;;;;;5072377;28;43427;-75
2022/11/19 00:38:50;;;;;;;1.30;1.30;;;18.00;74.50;;;;;;5071860;28;44064;-74
2022/11/19 00:41:18;;;;;;;1.50;1.50;;;18.00;74.70;;;;;;5072288;28;43399;-74
2022/11/19 00:43:47;;;;;;;1.40;1.40;;;18.00;74.60;;;;;;5072328;28;43392;-74
2022/11/19 00:46:16;;;;;;;1.53;1.53;;;18.00;74.50;;;;;;5053836;28;43449;-75
2022/11/19 00:48:44;;;;;;;1.47;1.47;;;18.00;74.50;;;;;;5053086;28;46034;-74
2022/11/19 00:51:12;;;;;;;1.77;1.67;;;17.90;74.40;;;;;;5069072;28;43447;-75
2022/11/19 00:53:40;;;;;;;1.33;1.33;;;17.90;74.60;;;;;;5053734;28;43392;-73
2022/11/19 00:56:09;;;;;;;1.40;1.40;;;17.90;74.80;;;;;;5073063;28;43435;-74
2022/11/19 00:58:37;;;;;;;1.57;1.50;;;18.10;74.60;;;;;;5053404;28;45999;-74
2022/11/19 01:01:07;;;;;;;1.67;1.57;;;18.20;74.10;;;;;;5071314;28;43403;-75
2022/11/19 01:03:35;;;;;;;1.40;1.40;;;18.20;73.80;;;;;;5054028;28;43442;-75
2022/11/19 01:06:03;;;;;;;1.60;1.60;;;18.20;73.70;;;;;;5071620;28;43427;-76
2022/11/19 01:08:31;;;;;;;1.40;1.40;;;18.20;74.00;;;;;;5071994;28;43858;-75
2022/11/19 01:11:04;;;;;;;1.40;1.40;;;18.20;74.00;;;;;;5072152;28;43947;-74
2022/11/19 01:13:34;;;;;;;1.50;1.50;;;18.20;73.90;;;;;;5073533;28;43435;-74
2022/11/19 01:16:04;;;;;;;1.43;1.43;;;18.10;73.90;;;;;;5071482;28;43508;-75
2022/11/19 01:18:34;;;;;;;1.50;1.50;;;18.10;73.90;;;;;;5073853;28;43599;-74
2022/11/19 01:21:02;;;;;;;1.50;1.50;;;18.10;74.10;;;;;;5075562;28;43406;-73
2022/11/19 01:23:30;;;;;;;1.50;1.50;;;18.00;74.40;;;;;;5057043;28;43368;-75
2022/11/19 01:25:58;;;;;;;1.40;1.40;;;18.00;74.50;;;;;;5075763;28;43510;-74
2022/11/19 01:28:26;;;;;;;1.33;1.33;;;18.10;74.30;;;;;;5075240;28;43625;-76
2022/11/19 01:30:54;;;;;;;1.30;1.30;;;18.10;74.00;;;;;;5075769;28;43455;-74
2022/11/19 01:33:22;;;;;;;1.40;1.40;;;18.10;74.00;;;;;;5056724;28;43386;-75
2022/11/19 01:35:58;;;;;;;1.40;1.40;;;18.00;73.90;;;;;;5075989;28;43373;-74
2022/11/19 01:38:26;;;;;;;1.30;1.30;;;18.00;74.30;;;;;;5077569;22;43886;-75
2022/11/19 01:40:55;;;;;;;1.60;1.60;;;18.10;74.40;;;;;;5055244;28;43477;-75
2022/11/19 01:43:39;;;;;;;1.50;1.50;;;18.10;74.20;;;;;;5037045;28;43530;-74
2022/11/19 01:46:07;;;;;;;1.20;1.20;;;18.00;74.20;;;;;;5053157;28;43415;-75
2022/11/19 01:48:36;;;;;;;1.30;1.30;;;18.00;74.30;;;;;;5055019;28;44056;-74
2022/11/19 01:51:08;;;;;;;1.40;1.40;;;18.00;74.40;;;;;;5048787;28;43473;-74
2022/11/19 01:53:36;;;;;;;1.40;1.40;;;17.90;74.70;;;;;;5054891;28;43410;-75
2022/11/19 01:56:05;;;;;;;1.50;1.50;;;18.00;74.70;;;;;;5055398;28;43384;-74
2022/11/19 01:58:35;;;;;;;1.17;1.17;;;18.10;74.40;;;;;;5037688;28;45667;-74
2022/11/19 02:01:03;;;;;;;1.33;1.33;;;18.20;74.00;;;;;;5038453;28;43412;-74
2022/11/19 02:03:32;;;;;;;1.23;1.23;;;18.20;73.70;;;;;;5039457;28;43443;-74
2022/11/19 02:06:00;;;;;;;1.20;1.20;;;18.20;73.70;;;;;;5055753;28;43428;-74
2022/11/19 02:08:38;;;;;;;1.30;1.30;;;18.20;74.00;;;;;;5054652;28;43923;-75
2022/11/19 02:11:25;;;;;;;1.23;1.23;;;18.20;74.00;;;;;;5049587;28;43388;-73
2022/11/19 02:13:57;;;;;;;1.17;1.17;;;18.10;73.80;;;;;;5036431;28;43446;-74
2022/11/19 02:16:26;;;;;;;1.33;1.33;;;18.10;73.90;;;;;;5037424;28;43491;-75
2022/11/19 02:18:55;;;;;;;1.30;1.30;;;18.10;74.10;;;;;;5038085;28;45555;-73
2022/11/19 02:21:29;;;;;;;1.30;1.30;;;18.00;74.10;;;;;;5054321;28;43427;-75
2022/11/19 02:24:19;;;;;;;1.33;1.33;;;17.90;74.40;;;;;;5042492;28;44026;-73
2022/11/19 02:27:19;;;;;;;1.40;1.40;;;18.00;74.40;;;;;;5031959;28;44037;-75
2022/11/19 02:30:06;;;;;;;1.20;1.20;;;18.00;74.30;;;;;;5054928;28;43859;-75
2022/11/19 02:32:35;;;;;;;1.10;1.10;;;17.90;74.30;;;;;;5049088;28;43396;-75
2022/11/19 02:35:09;;;;;;;1.00;1.00;;;17.90;74.40;;;;;;5055126;28;43396;-74
2022/11/19 02:37:40;;;;;;;1.30;1.30;;;17.90;74.70;;;;;;5056185;28;43487;-75
2022/11/19 02:40:11;;;;;;;1.20;1.20;;;17.90;74.80;;;;;;5100007;22;43587;-74
2022/11/19 02:42:42;;;;;;;1.43;1.43;;;18.10;74.50;;;;;;5090856;28;43458;-76
2022/11/19 02:45:13;;;;;;;1.20;1.20;;;18.10;74.00;;;;;;5095668;28;43383;-73
2022/11/19 02:47:45;;;;;;;1.10;1.10;;;18.20;73.80;;;;;;5092126;28;43410;-74
2022/11/19 02:50:14;;;;;;;1.30;1.30;;;18.20;73.70;;;;;;5093150;28;43942;-73
2022/11/19 02:52:42;;;;;;;1.40;1.40;;;18.20;74.00;;;;;;5092009;28;43456;-74
2022/11/19 02:55:12;;;;;;;1.40;1.40;;;18.20;74.00;;;;;;5092445;28;43502;-73
2022/11/19 02:57:40;;;;;;;1.40;1.40;;;18.10;73.80;;;;;;5095378;28;43419;-74
2022/11/19 03:05:45;;;;;;;1.30;1.30;;;18.00;74.00;;;;;;5076203;28;43510;-74
2022/11/19 03:08:13;;;;;;;1.30;1.30;;;18.00;74.60;;;;;;5095144;28;43453;-75
2022/11/19 03:10:45;;;;;;;1.30;1.30;;;18.00;74.50;;;;;;5095351;28;43596;-74
2022/11/19 03:18:50;;;;;;;1.20;1.20;;;17.90;74.40;;;;;;5073071;28;43450;-74
2022/11/19 03:21:21;;;;;;;1.40;1.40;;;17.90;74.50;;;;;;5091808;28;43599;-76
2022/11/19 03:23:51;;;;;;;1.07;1.07;;;17.90;74.90;;;;;;5094075;28;43462;-74
2022/11/19 03:26:22;;;;;;;1.30;1.30;;;18.00;74.80;;;;;;5094371;28;43714;-75
2022/11/19 03:28:49;;;;;;;1.20;1.20;;;18.10;74.30;;;;;;5095203;28;43518;-73
2022/11/19 03:31:17;;;;;;;1.10;1.10;;;18.20;74.00;;;;;;5094239;28;43838;-74
2022/11/19 03:33:46;;;;;;;1.10;1.10;;;18.20;73.80;;;;;;5075808;28;43730;-73
2022/11/19 03:36:18;;;;;;;1.03;1.03;;;18.10;73.70;;;;;;5093660;28;43412;-75
2022/11/19 03:38:48;;;;;;;1.20;1.20;;;18.10;74.10;;;;;;5094358;27;43399;-75
2022/11/19 03:41:17;;;;;;;1.10;1.10;;;18.10;74.00;;;;;;5094665;28;43929;-75
2022/11/19 03:43:46;;;;;;;1.07;1.07;;;18.10;74.00;;;;;;5075036;28;43403;-74
2022/11/19 03:46:15;;;;;;;1.30;1.30;;;18.10;74.00;;;;;;5093753;28;43506;-74
2022/11/19 03:48:43;;;;;;;1.20;1.20;;;18.00;74.00;;;;;;5094546;28;43855;-75
2022/11/19 03:51:12;;;;;;;1.30;1.30;;;18.00;74.20;;;;;;5088565;28;43876;-74
2022/11/19 03:53:41;;;;;;;1.10;1.10;;;17.90;74.50;;;;;;5094489;28;43395;-75
2022/11/19 03:56:10;;;;;;;1.30;1.30;;;17.90;74.40;;;;;;5093913;28;43512;-74
2022/11/19 03:58:38;;;;;;;0.90;0.90;;;17.90;74.40;;;;;;5093368;28;43567;-75
2022/11/19 04:01:06;;;;;;;1.07;1.07;;;17.90;74.40;;;;;;5093176;28;43666;-74
2022/11/19 04:03:34;;;;;;;1.27;1.27;;;17.90;74.50;;;;;;5094083;28;43418;-75
2022/11/19 04:06:02;;;;;;;1.10;1.10;;;17.90;74.50;;;;;;5095139;28;43465;-74
2022/11/19 04:08:31;;;;;;;1.10;1.10;;;17.90;75.00;;;;;;5095895;28;44188;-74
2022/11/19 04:11:00;;;;;;;1.10;1.10;;;18.00;74.80;;;;;;5094399;28;43759;-74
2022/11/19 04:13:27;;;;;;;1.13;1.13;;;18.10;74.30;;;;;;5094870;28;43491;-73
2022/11/19 04:15:55;;;;;;;1.10;1.10;;;18.20;73.90;;;;;;5076898;28;43418;-75
2022/11/19 04:18:23;;;;;;;1.10;1.10;;;18.20;73.70;;;;;;5095728;28;43447;-76
2022/11/19 04:20:50;;;;;;;1.00;1.00;;;18.10;73.70;;;;;;5095413;28;43597;-75
2022/11/19 04:23:18;;;;;;;1.10;1.10;;;18.10;74.10;;;;;;5095894;28;43814;-74
2022/11/19 04:25:46;;;;;;;1.03;1.03;;;18.10;74.00;;;;;;5094519;28;43451;-75
2022/11/19 04:28:16;;;;;;;1.00;1.00;;;18.10;73.90;;;;;;5096616;28;43857;-75
2022/11/19 04:30:44;;;;;;;1.23;1.23;;;18.10;74.00;;;;;;5096175;28;43805;-75
2022/11/19 04:33:12;;;;;;;1.10;1.10;;;18.00;74.00;;;;;;5095174;28;43461;-73
2022/11/19 04:35:40;;;;;;;1.10;1.10;;;18.00;74.30;;;;;;5075298;28;43344;-74
2022/11/19 04:38:08;;;;;;;1.00;1.00;;;17.90;74.60;;;;;;5098484;22;43495;-73
2022/11/19 04:40:37;;;;;;;1.00;1.00;;;17.90;74.50;;;;;;5053707;28;43901;-73
2022/11/19 04:43:05;;;;;;;1.00;1.00;;;17.90;74.50;;;;;;5047425;28;43360;-75
2022/11/19 04:45:35;;;;;;;1.07;1.07;;;17.90;74.40;;;;;;5052956;28;43464;-75
2022/11/19 04:48:03;;;;;;;1.00;1.00;;;17.90;74.50;;;;;;5054158;28;43420;-75
2022/11/19 04:50:31;;;;;;;1.10;1.10;;;17.90;74.60;;;;;;5050124;28;44051;-74
2022/11/19 04:52:59;;;;;;;1.10;1.10;;;17.80;74.80;;;;;;5055201;28;43399;-75
2022/11/19 04:55:27;;;;;;;1.10;1.10;;;17.90;74.70;;;;;;5056593;28;43943;-74
2022/11/19 04:57:55;;;;;;;1.10;1.10;;;17.90;74.50;;;;;;5040907;28;43564;-73
2022/11/19 05:00:23;;;;;;;1.10;1.10;;;17.90;74.50;;;;;;5047575;28;45496;-74
2022/11/19 05:02:52;;;;;;;0.90;0.90;;;17.90;74.50;;;;;;5056025;28;44522;-74
2022/11/19 05:05:23;;;;;;;1.03;1.03;;;17.80;74.60;;;;;;5054983;28;43395;-75
2022/11/19 05:07:51;;;;;;;1.10;1.10;;;17.90;74.90;;;;;;5055474;28;43405;-75
2022/11/19 05:10:19;;;;;;;1.17;1.17;;;17.90;74.60;;;;;;5055545;28;43924;-74
2022/11/19 05:12:47;;;;;;;0.97;0.97;;;18.10;74.30;;;;;;5054890;28;43415;-75
2022/11/19 05:15:15;;;;;;;1.00;1.00;;;18.30;73.80;;;;;;5054925;28;43484;-74
2022/11/19 05:17:43;;;;;;;1.07;1.07;;;18.40;73.30;;;;;;5055077;28;43432;-75
2022/11/19 05:20:12;;;;;;;0.97;0.97;;;18.40;73.00;;;;;;5054140;28;43923;-75
2022/11/19 05:22:40;;;;;;;1.00;1.00;;;18.30;73.00;;;;;;5054491;28;43566;-74
2022/11/19 05:25:09;;;;;;;0.90;0.90;;;18.30;73.10;;;;;;5039021;28;44006;-75
2022/11/19 05:27:37;;;;;;;0.90;0.90;;;18.20;73.30;;;;;;5049996;28;43438;-74
2022/11/19 05:30:06;;;;;;;0.90;0.90;;;18.10;73.60;;;;;;5042420;28;46335;-74
2022/11/19 05:32:35;;;;;;;1.00;1.00;;;18.10;74.10;;;;;;5055076;28;43451;-74
2022/11/19 05:35:03;;;;;;;0.90;0.90;;;18.10;74.10;;;;;;5055080;28;43407;-74
2022/11/19 05:37:32;;;;;;;1.00;1.00;;;18.10;74.10;;;;;;5055356;28;43441;-75
2022/11/19 05:40:00;;;;;;;0.80;0.80;;;18.10;74.00;;;;;;5099052;22;43937;-73
2022/11/19 05:42:28;;;;;;;1.13;1.13;;;18.00;74.10;;;;;;5096081;28;43402;-73
2022/11/19 05:44:56;;;;;;;0.90;0.90;;;18.00;74.20;;;;;;5096132;28;43428;-73
2022/11/19 05:47:24;;;;;;;0.70;0.70;;;17.90;74.50;;;;;;5096801;28;43464;-74
2022/11/19 05:49:52;;;;;;;0.90;0.90;;;17.90;74.30;;;;;;5097131;28;43920;-74
2022/11/19 05:52:20;;;;;;;0.97;0.97;;;17.90;74.90;;;;;;5076451;28;46018;-74
2022/11/19 05:54:49;;;;;;;0.87;0.87;;;17.90;74.20;;;;;;5097209;27;43402;-74
2022/11/19 05:57:17;;;;;;;0.90;0.90;;;17.90;74.30;;;;;;5073695;28;43553;-74
2022/11/19 05:59:45;;;;;;;0.90;0.90;;;17.90;74.50;;;;;;5095845;27;43635;-75
2022/11/19 06:02:13;;;;;;;1.00;1.00;;;17.90;74.80;;;;;;5077449;28;44940;-74
2022/11/19 06:04:41;;;;;;;1.20;1.10;;;17.90;74.70;;;;;;5095980;28;43818;-75
2022/11/19 06:07:09;;;;;;;0.80;0.80;;;18.10;74.40;;;;;;5095987;28;43442;-74
2022/11/19 06:09:37;;;;;;;0.90;0.90;;;18.20;73.90;;;;;;5095048;28;43787;-74
2022/11/19 06:12:07;;;;;;;0.90;0.90;;;18.30;73.40;;;;;;5095256;28;43406;-74
2022/11/19 06:14:35;;;;;;;1.00;1.00;;;18.40;73.20;;;;;;5076667;28;43447;-75
2022/11/19 06:17:03;;;;;;;0.80;0.80;;;18.40;73.00;;;;;;5095288;28;44023;-75
2022/11/19 06:19:31;;;;;;;0.87;0.87;;;18.30;73.10;;;;;;5095579;28;43995;-75
2022/11/19 06:21:59;;;;;;;0.90;0.90;;;18.20;73.20;;;;;;5076688;28;44543;-75
2022/11/19 06:24:27;;;;;;;0.90;0.90;;;18.10;73.50;;;;;;5095246;28;43713;-75
2022/11/19 06:26:55;;;;;;;0.70;0.70;;;18.10;73.90;;;;;;5096012;28;43414;-75
2022/11/19 06:29:24;;;;;;;0.90;0.90;;;18.10;74.20;;;;;;5094843;28;43868;-75
2022/11/19 06:31:52;;;;;;;0.90;0.90;;;18.10;74.10;;;;;;5095694;28;43498;-73
2022/11/19 06:34:20;;;;;;;0.93;0.93;;;18.00;74.00;;;;;;5095124;28;43363;-74
2022/11/19 06:36:48;;;;;;;0.80;0.80;;;18.00;74.00;;;;;;5096583;28;43459;-75
2022/11/19 06:39:17;;;;;;;0.90;0.90;;;17.90;74.10;;;;;;5094608;27;43722;-76
2022/11/19 06:41:47;;;;;;;1.00;1.00;;;17.90;74.30;;;;;;5095542;28;43852;-73
2022/11/19 06:44:15;;;;;;;1.00;1.00;;;17.90;74.50;;;;;;5095396;28;43489;-75
2022/11/19 06:46:44;;;;;;;0.80;0.80;;;17.90;74.30;;;;;;5077772;28;43658;-74
2022/11/19 06:49:12;;;;;;;0.97;0.97;;;17.90;74.20;;;;;;5094873;28;43924;-74
2022/11/19 06:51:47;;;;;;;0.87;0.87;;;17.90;74.20;;;;;;5077021;28;44704;-74
2022/11/19 06:54:15;;;;;;;0.80;0.80;;;17.90;74.40;;;;;;5076549;28;43471;-74
2022/11/19 06:56:45;;;;;;;0.87;0.87;;;17.90;74.60;;;;;;5095372;28;43524;-75
2022/11/19 06:59:14;;;;;;;1.00;1.00;;;17.90;74.70;;;;;;5075294;28;45570;-73
2022/11/19 07:01:41;;;;;;;0.80;0.80;;;18.00;74.50;;;;;;5095146;28;43407;-75
2022/11/19 07:04:11;;;;;;;0.80;0.80;;;18.20;74.10;;;;;;5095191;28;43432;-74
2022/11/19 07:06:39;;;;;;;0.90;0.90;;;18.30;73.60;;;;;;5078466;28;44601;-76
2022/11/19 07:09:07;;;;;;;0.90;0.90;;;18.40;73.20;;;;;;5096581;28;44032;-74
2022/11/19 07:11:35;;;;;;;0.73;0.73;;;18.40;73.10;;;;;;5094323;27;43457;-75
2022/11/19 07:14:03;;;;;;;0.80;0.80;;;18.30;73.10;;;;;;5095816;28;43483;-74
2022/11/19 07:16:32;;;;;;;0.90;0.90;;;18.20;73.20;;;;;;5095710;28;43507;-73
2022/11/19 07:19:00;;;;;;;0.70;0.70;;;18.20;73.50;;;;;;5095979;28;43918;-75
2022/11/19 07:21:30;;;;;;;0.80;0.80;;;18.00;73.60;;;;;;5096040;28;43429;-75
2022/11/19 07:23:58;;;;;;;0.83;0.83;;;18.00;74.20;;;;;;5096856;28;43379;-74
2022/11/19 07:26:26;;;;;;;0.80;0.80;;;18.00;74.10;;;;;;5096127;28;43365;-75
2022/11/19 07:28:54;;;;;;;0.70;0.70;;;18.00;74.10;;;;;;5094356;27;45232;-74
2022/11/19 07:31:23;;;;;;;0.70;0.70;;;17.90;74.10;;;;;;5093574;28;43511;-75
2022/11/19 07:33:51;;;;;;;0.73;0.73;;;17.90;74.10;;;;;;5095377;28;43471;-75
2022/11/19 07:36:19;;;;;;;0.90;0.90;;;17.90;74.30;;;;;;5096731;28;43454;-75
2022/11/19 07:38:49;;;;;;;0.90;0.90;;;17.90;74.70;;;;;;5089210;22;45704;-74
2022/11/19 07:44:03;;;;;;;0.70;0.70;;;18.10;74.30;;;;;;5052413;28;43334;-74
2022/11/19 07:46:31;;;;;;;0.90;0.90;;;18.10;73.90;;;;;;5056397;28;43433;-74
2022/11/19 07:48:59;;;;;;;0.70;0.70;;;18.10;73.80;;;;;;5054047;28;43925;-74
2022/11/19 07:51:27;;;;;;;1.20;0.90;;;18.10;74.80;;;;;;5054135;28;45665;-75
2022/11/19 07:53:56;;;;;;;0.90;0.90;;;18.10;74.20;;;;;;5055715;28;43466;-74
2022/11/19 07:56:24;;;;;;;0.80;0.80;;;18.00;74.00;;;;;;5056548;28;43411;-74
2022/11/19 07:58:52;;;;;;;1.00;1.00;;;18.00;74.60;;;;;;5056360;28;43914;-75
2022/11/19 08:01:21;;;;;;;0.73;0.73;;;18.00;74.00;;;;;;5054300;28;43484;-75
2022/11/19 08:03:50;;;;;;;1.00;1.00;;;18.00;74.10;;;;;;5056898;28;43318;-74
2022/11/19 08:06:23;;;;;;;0.87;0.87;;;17.90;74.10;;;;;;5057054;28;43539;-75
2022/11/19 08:08:51;;;;;;;0.70;0.70;;;17.90;74.50;;;;;;5054888;28;43882;-74
2022/11/19 08:11:21;;;;;;;0.80;0.80;;;17.90;74.40;;;;;;5056174;28;43470;-75
2022/11/19 08:13:49;;;;;;;0.83;0.83;;;17.90;74.30;;;;;;5057774;28;43359;-74
2022/11/19 08:18:11;;;;;;;0.83;0.83;;;17.90;74.30;;;;;;5056128;28;43617;-74
2022/11/19 08:19:06;;;;;;;0.90;0.90;;;17.90;74.40;;;;;;5054681;28;43926;-75
2022/11/19 08:21:34;;;;;;;1.10;1.10;;;17.90;74.50;;;;;;5056359;28;43415;-74
2022/11/19 08:24:02;;;;;;;1.00;1.00;;;17.90;74.80;;;;;;5061105;28;43397;-75
2022/11/19 08:26:31;;;;;;;0.90;0.90;;;17.90;74.60;;;;;;5059449;28;43493;-76
2022/11/19 08:28:59;;;;;;;0.70;0.70;;;18.10;74.20;;;;;;5056746;28;43920;-75
2022/11/19 08:31:27;;;;;;;1.10;1.10;;;18.20;73.80;;;;;;5057170;28;43394;-74
2022/11/19 08:33:55;;;;;;;0.97;0.97;;;18.30;73.20;;;;;;5057172;28;43487;-74
2022/11/19 08:36:23;;;;;;;0.80;0.80;;;18.40;73.10;;;;;;5049738;28;43540;-74
2022/11/19 08:38:51;;;;;;;0.80;0.80;;;18.30;72.90;;;;;;5048095;28;43903;-75
2022/11/19 08:44:06;;;;;;;0.87;0.87;;;18.20;73.20;;;;;;5037950;28;43532;-73
2022/11/19 08:46:34;;;;;;;0.80;0.80;;;18.10;73.40;;;;;;5039245;28;43367;-74
2022/11/19 08:49:02;;;;;;;1.00;1.00;;;18.00;73.80;;;;;;5041932;28;46192;-74
2022/11/19 08:51:30;;;;;;;0.80;0.80;;;18.00;74.00;;;;;;5036392;28;43494;-75
2022/11/19 08:53:58;;;;;;;1.00;1.00;;;18.00;74.60;;;;;;5042568;28;43445;-74
2022/11/19 08:56:25;;;;;;;1.00;1.00;;;18.00;73.90;;;;;;5042202;28;43616;-75
2022/11/19 08:58:54;;;;;;;0.83;0.83;;;18.00;74.00;;;;;;5038502;28;43927;-75
2022/11/19 09:01:30;;;;;;;1.00;1.00;;;17.90;74.00;;;;;;5036369;28;43756;-75
2022/11/19 09:03:58;;;;;;;0.87;0.87;;;17.90;74.40;;;;;;5032768;28;43450;-74
2022/11/19 09:06:26;;;;;;;0.90;0.90;;;17.90;74.30;;;;;;5031428;28;43980;-74
2022/11/19 09:08:54;;;;;;;1.00;1.00;;;17.90;74.20;;;;;;5038957;28;46144;-75
2022/11/19 09:11:22;;;;;;;0.90;0.90;;;17.90;74.20;;;;;;5041846;28;43547;-75
2022/11/19 09:13:50;;;;;;;1.00;1.00;;;17.90;74.20;;;;;;5038336;28;43451;-75
2022/11/19 09:16:18;;;;;;;1.10;1.10;;;17.90;74.20;;;;;;5039183;28;43430;-75
2022/11/19 09:18:47;;;;;;;2.63;0.97;;;17.90;74.50;;;;;;5040413;28;43941;-75
2022/11/19 09:21:15;;;;;;;1.50;1.50;;;17.90;74.70;;;;;;5039143;28;43371;-75
2022/11/19 09:23:43;;;;;;;1.63;1.30;;;18.00;72.90;;;;;;5037954;28;43531;-76
2022/11/19 09:26:12;;;;;;;5.13;1.50;;;18.10;72.80;;;;;;5037109;28;43480;-75
2022/11/19 09:28:40;;;;;;;1.57;1.47;;;18.20;72.80;;;;;;5041759;28;43860;-73
2022/11/19 09:31:10;;;;;;;1.47;1.37;;;18.20;72.80;;;;;;5038826;28;43363;-75
2022/11/19 09:33:40;;;;;;;4.43;1.30;;;18.10;72.90;;;;;;5039238;28;43490;-74
2022/11/19 09:36:10;;;;;;;2.80;1.40;;;18.10;73.10;;;;;;5039536;28;43451;-75
2022/11/19 09:38:39;;;;;;;1.47;1.40;;;18.10;73.00;;;;;;5063511;22;43918;-74
2022/11/19 09:41:37;;;;;;;1.30;1.30;;;18.10;73.10;;;;;;5097909;28;43399;-73
2022/11/19 09:44:11;;;;;;;1.20;1.20;;;18.00;73.10;;;;;;5096212;28;43417;-74
2022/11/19 09:46:43;;;;;;;1.77;1.50;;;18.00;73.20;;;;;;5097878;28;43411;-74
2022/11/19 09:49:13;;;;;;;2.03;1.30;;;17.90;73.30;;;;;;5097910;28;43900;-75
2022/11/19 09:51:43;;;;;;;1.20;1.20;;;17.90;73.70;;;;;;5096595;28;43430;-75
2022/11/19 09:54:14;;;;;;;1.90;1.40;;;17.90;73.60;;;;;;5098170;28;43484;-74
2022/11/19 09:56:43;;;;;;;1.30;1.30;;;17.90;73.50;;;;;;5098156;28;43415;-75
2022/11/19 09:59:16;;;;;;;1.40;1.37;;;17.90;73.50;;;;;;5098371;28;43919;-75
2022/11/19 10:01:44;;;;;;;2.00;1.40;;;17.80;73.50;;;;;;5098901;28;43500;-75
2022/11/19 10:04:12;;;;;;;1.83;1.73;;;17.80;73.70;;;;;;5098541;28;43331;-75
2022/11/19 10:06:46;;;;;;;1.57;1.57;;;17.80;74.00;;;;;;5081134;28;43561;-74
2022/11/19 10:09:34;;;;;;;2.00;1.50;;;17.80;73.80;;;;;;5099272;28;43890;-75
2022/11/19 10:12:12;;;;;;;1.40;1.40;;;17.80;73.70;;;;;;5095323;28;43332;-75
2022/11/19 10:14:48;;;;;;;1.53;1.43;;;17.80;73.70;;;;;;5098659;28;43450;-74
2022/11/19 10:17:21;;;;;;;1.53;1.53;;;17.80;74.00;;;;;;5098005;28;43446;-74
2022/11/19 10:19:54;;;;;;;1.73;1.73;;;17.80;74.20;;;;;;5096878;28;43607;-75
2022/11/19 10:22:27;;;;;;;1.60;1.60;;;17.80;74.20;;;;;;5096706;28;44025;-76
2022/11/19 10:24:57;;;;;;;1.97;1.83;;;17.90;73.80;;;;;;5098287;28;43534;-75
2022/11/19 10:27:28;;;;;;;1.80;1.70;;;18.10;73.40;;;;;;5098831;28;43450;-75
2022/11/19 10:29:58;;;;;;;1.53;1.50;;;18.10;73.10;;;;;;5079173;28;45360;-74
2022/11/19 10:32:29;;;;;;;1.90;1.80;;;18.10;73.00;;;;;;5096798;28;43379;-75
2022/11/19 10:35:00;;;;;;;1.50;1.50;;;18.00;73.30;;;;;;5095623;28;43389;-75
2022/11/19 10:37:33;;;;;;;1.53;1.40;;;18.10;73.30;;;;;;5097919;28;43411;-75
2022/11/19 10:40:03;;;;;;;1.67;1.67;;;18.10;73.20;;;;;;5069651;28;45966;-74
2022/11/19 10:42:33;;;;;;;1.80;1.80;;;18.00;73.00;;;;;;5058517;28;45034;-75
2022/11/19 10:45:03;;;;;;;2.50;1.60;;;18.00;73.20;;;;;;5057979;28;43372;-75
2022/11/19 10:47:33;;;;;;;1.50;1.50;;;17.90;73.20;;;;;;5058746;28;43602;-75
2022/11/19 10:50:01;;;;;;;1.67;1.67;;;17.90;73.80;;;;;;5077967;28;43865;-73
2022/11/19 10:52:39;;;;;;;2.80;1.83;;;17.90;73.70;;;;;;5076403;28;43388;-75
2022/11/19 10:55:15;;;;;;;1.90;1.80;;;17.90;73.60;;;;;;5076603;28;43468;-73
2022/11/19 10:57:43;;;;;;;1.60;1.60;;;17.90;73.60;;;;;;5075047;28;43451;-75
2022/11/19 11:00:12;;;;;;;1.70;1.70;;;17.90;73.60;;;;;;5058513;28;45574;-75
2022/11/19 11:02:42;;;;;;;1.80;1.70;;;17.90;73.70;;;;;;5076778;28;43403;-74
2022/11/19 11:05:12;;;;;;;1.70;1.70;;;17.80;74.20;;;;;;5076177;28;43374;-74
2022/11/19 11:07:53;;;;;;;2.10;1.90;;;17.90;74.10;;;;;;5076848;28;43434;-74
2022/11/19 11:10:29;;;;;;;1.90;1.80;;;18.00;73.70;;;;;;5076018;28;43699;-74
2022/11/19 11:15:47;;;;;;;1.73;1.73;;;18.20;73.00;;;;;;5073810;28;43429;-74
2022/11/19 11:18:15;;;;;;;2.10;1.73;;;18.10;72.80;;;;;;5076900;28;43391;-76
2022/11/19 11:20:46;;;;;;;1.83;1.83;;;18.10;73.40;;;;;;5076584;28;44101;-74
2022/11/19 11:23:16;;;;;;;1.90;1.80;;;18.10;73.20;;;;;;5076198;28;43415;-75
2022/11/19 11:25:51;;;;;;;1.67;1.57;;;18.00;72.90;;;;;;5076181;28;43338;-74
2022/11/19 11:28:20;;;;;;;1.50;1.50;;;18.00;73.00;;;;;;5077040;28;44032;-74
2022/11/19 11:30:52;;;;;;;1.70;1.70;;;18.00;73.20;;;;;;5057701;28;45764;-73
2022/11/19 11:33:27;;;;;;;1.53;1.53;;;17.90;73.30;;;;;;5076697;28;43478;-73
2022/11/19 11:35:55;;;;;;;1.90;1.90;;;17.90;73.80;;;;;;5071633;28;43415;-75
2022/11/19 11:38:25;;;;;;;1.60;1.60;;;17.90;73.50;;;;;;5091344;22;43964;-75
2022/11/19 11:40:57;;;;;;;3.83;2.30;;;17.90;73.40;;;;;;5127216;27;45725;-74
2022/11/19 11:44:00;;;;;;;1.80;1.80;;;17.90;73.40;;;;;;5117592;27;43384;-74
2022/11/19 11:46:34;;;;;;;4.30;2.50;;;17.80;73.50;;;;;;5117012;27;43394;-74
2022/11/19 11:49:02;;;;;;;2.87;2.20;;;17.80;73.40;;;;;;5115318;27;43997;-74
2022/11/19 11:51:39;;;;;;;2.20;2.10;;;17.90;73.00;;;;;;5112867;27;43871;-75
2022/11/19 11:54:16;;;;;;;2.30;2.10;;;17.90;72.90;;;;;;5117302;27;43349;-75
2022/11/19 11:56:45;;;;;;;2.00;2.00;;;18.10;72.70;;;;;;5100632;27;43442;-75
2022/11/19 11:59:23;;;;;;;2.03;1.80;;;18.10;72.40;;;;;;5120130;27;43378;-75
2022/11/19 12:01:55;;;;;;;1.87;1.87;;;18.10;72.40;;;;;;5119585;27;43794;-74
2022/11/19 12:04:23;;;;;;;1.63;1.60;;;18.00;73.00;;;;;;5118535;27;43395;-74
2022/11/19 12:06:57;;;;;;;2.27;2.20;;;18.10;72.90;;;;;;5120496;27;43486;-75
2022/11/19 12:09:29;;;;;;;1.80;1.70;;;18.10;72.70;;;;;;5102393;27;43593;-74
2022/11/19 12:11:59;;;;;;;1.57;1.57;;;18.00;72.70;;;;;;5112881;27;43911;-75
2022/11/19 12:14:28;;;;;;;2.10;1.90;;;18.00;72.80;;;;;;5095301;27;44534;-75
2022/11/19 12:17:05;;;;;;;2.20;2.10;;;17.90;72.90;;;;;;5115119;27;43479;-74
2022/11/19 12:19:44;;;;;;;2.10;2.00;;;17.90;73.50;;;;;;5118957;27;43846;-74
2022/11/19 12:22:16;;;;;;;1.87;1.87;;;17.90;73.30;;;;;;5119111;27;43926;-75
2022/11/19 12:25:14;;;;;;;2.07;1.97;;;17.90;73.20;;;;;;5118949;27;43383;-74
2022/11/19 12:27:47;;;;;;;1.90;1.90;;;17.90;73.20;;;;;;5100958;27;43428;-74
2022/11/19 12:30:18;;;;;;;2.03;2.00;;;17.90;73.20;;;;;;5119462;27;43509;-74
2022/11/19 12:32:55;;;;;;;2.10;2.00;;;17.80;73.40;;;;;;5115149;27;43710;-75
2022/11/19 12:35:30;;;;;;;1.93;1.90;;;17.90;73.80;;;;;;5115377;27;43535;-73
2022/11/19 12:38:13;;;;;;;1.80;1.80;;;18.00;73.60;;;;;;5121311;22;43901;31
2022/11/19 12:40:46;;;;;;;2.20;2.10;;;18.10;73.00;;;;;;5056085;28;44902;-75
2022/11/19 12:43:26;;;;;;;2.13;2.03;;;18.20;72.70;;;;;;5064623;28;46267;-75
2022/11/19 12:45:57;;;;;;;3.37;2.30;;;18.10;72.50;;;;;;5058607;28;43356;-76
2022/11/19 12:48:34;;;;;;;2.50;2.40;;;18.10;72.80;;;;;;5058520;28;43563;-75
2022/11/19 12:51:04;;;;;;;2.53;2.43;;;18.10;72.90;;;;;;5059865;28;43483;-75
2022/11/19 12:53:40;;;;;;;2.20;2.17;;;18.10;72.70;;;;;;5057122;28;43861;-74
2022/11/19 12:56:16;;;;;;;2.50;2.37;;;18.10;72.80;;;;;;5041360;28;44930;-73
2022/11/19 12:58:46;;;;;;;2.40;2.30;;;18.00;72.70;;;;;;5056806;28;43452;-74
2022/11/19 13:01:15;;;;;;;2.37;2.30;;;18.00;73.00;;;;;;5052806;28;43409;-74
2022/11/19 13:03:47;;;;;;;2.40;2.30;;;17.90;73.20;;;;;;5057490;28;43859;-73
2022/11/19 13:06:17;;;;;;;2.10;2.10;;;17.90;73.40;;;;;;5057220;28;44090;-74
2022/11/19 13:08:48;;;;;;;2.00;2.00;;;17.90;73.30;;;;;;5057892;28;43456;-74
2022/11/19 13:11:18;;;;;;;2.60;2.50;;;17.90;73.20;;;;;;5061436;28;43388;-74
2022/11/19 13:13:47;;;;;;;2.40;2.30;;;17.90;73.20;;;;;;5061261;28;43560;-75
2022/11/19 13:16:16;;;;;;;2.20;2.10;;;17.80;73.30;;;;;;5061044;28;43369;-75
2022/11/19 13:18:46;;;;;;;2.10;2.10;;;17.80;73.70;;;;;;5059471;28;43459;-75
2022/11/19 13:21:18;;;;;;;2.20;2.10;;;17.90;73.80;;;;;;5058601;28;43404;-75
2022/11/19 13:23:47;;;;;;;2.50;2.30;;;17.90;74.00;;;;;;5057671;28;43982;-74